Wednesday, November 22, 2017, 12:52 PM GMT
Back to Local

CYKF, Waterloo Well

Location: , , Canada Lat: 43.467
Local Time: 12:52 PM GMT (12:52 GMT) Lon: -80.383
Time Zone: GMT Elev: 1040 ft

Show me the last for .
Show Decoded

2017-11-22 12:23 METAR CYKF 221223Z AUTO 31006KT 9SM -SN BKN020 BKN028 OVC036 M02/M03 A3009 RMK
                 ICG PAST HR SLP202 =
2017-11-22 12:08 METAR CYKF 221208Z AUTO 31008G15KT 9SM -SN SCT024 SCT030 OVC036 M02/M03 A3009
                 RMK ICG PAST HR SLP201 =
2017-11-22 12:00 METAR CYKF 221200Z AUTO 32011G17KT 9SM -SN SCT024 BKN030 OVC038 M02/M04 A3008
                 RMK ICG INTMT SLP200 =
2017-11-22 11:58 METAR CYKF 221158Z AUTO 32011G17KT 9SM -SN BKN024 OVC030 M02/M04 A3008 RMK ICG
                 INTMT SLP198 =
2017-11-22 11:56 METAR CYKF 221156Z AUTO 32011G18KT 6SM -SN -FZUP BKN024 OVC030 M02/M04 A3008 RMK
                 ICG INTMT SLP198 =
2017-11-22 11:48 METAR CYKF 221148Z AUTO 32013G20KT 4SM -SN -FZUP FEW015 BKN024 OVC030 M02/M03
                 A3007 RMK ICG SLP196 =
2017-11-22 11:45 METAR CYKF 221145Z AUTO 32014G20KT 5SM -SN FEW015 OVC024 M02/M03 A3007 RMK ICG
                 SLP196 =
2017-11-22 11:44 METAR CYKF 221144Z AUTO 31015G20KT 5SM -SN FEW015 BKN024 OVC029 M02/M03 A3007
                 RMK ICG PAST HR SLP196 =
2017-11-22 11:35 METAR CYKF 221135Z AUTO 32012G19KT 9SM -SN BKN024 OVC029 M02/M04 A3007 RMK ICG
                 PAST HR SLP193 =
2017-11-22 11:03 METAR CYKF 221103Z AUTO 32008G15KT 9SM -SN SCT014 OVC032 M01/M03 A3004 RMK ICG
                 PAST HR SLP185 =
2017-11-22 11:00 METAR CYKF 221100Z AUTO 32009G15KT 290V350 9SM -SN BKN014 OVC032 M01/M03 A3004
                 RMK ICG INTMT SLP184 =
2017-11-22 10:47 METAR CYKF 221047Z AUTO 32008G16KT 6SM -SN OVC014 M01/M02 A3003 RMK ICG SLP182 =
2017-11-22 10:35 METAR CYKF 221035Z AUTO 30012KT 3SM -SN OVC013 M01/M02 A3003 RMK ICG SLP180 =
2017-11-22 10:25 METAR CYKF 221025Z AUTO 31011G19KT 2 1/2SM -SN OVC013 M01/M02 A3002 RMK SLP178 =
2017-11-22 10:13 METAR CYKF 221013Z AUTO 29011G20KT 5SM -SN BKN013 OVC021 M01/M02 A3002 RMK
                 SLP175 =
2017-11-22 10:00 METAR CYKF 221000Z AUTO 30013KT 9SM -SN BKN013 OVC021 M01/M02 A3001 RMK SLP173 =
2017-11-22 09:10 METAR CYKF 220910Z AUTO 29012G18KT 9SM -SN BKN015 OVC043 M01/M02 A2999 RMK
                 SLP165 =
2017-11-22 09:04 METAR CYKF 220904Z AUTO 29012G18KT 9SM -SN SCT015 SCT021 BKN026 OVC043 M01/M02
                 A2999 RMK SLP165 =
2017-11-22 09:00 METAR CYKF 220900Z AUTO 29015KT 9SM -SN SCT015 BKN024 OVC043 M01/M02 A2998 RMK
                 SLP163 =
2017-11-22 08:43 METAR CYKF 220843Z AUTO 29016KT 9SM -SN BKN019 BKN025 OVC045 M00/M02 A2998 RMK
                 SLP163 =
2017-11-22 08:42 METAR CYKF 220842Z AUTO 29015KT 9SM -SN SCT017 BKN025 OVC045 M00/M03 A2998 RMK
                 SLP162 =
2017-11-22 08:31 METAR CYKF 220831Z AUTO 30012KT 9SM -SN BKN019 OVC043 M00/M03 A2998 RMK SLP162 =
2017-11-22 08:23 METAR CYKF 220823Z AUTO 31012KT 9SM BKN019 OVC041 M00/M03 A2998 RMK SLP161 =
2017-11-22 08:18 METAR CYKF 220818Z AUTO 30010G17KT 9SM SCT021 SCT026 OVC041 M00/M03 A2998 RMK
                 SLP161 =
2017-11-22 08:12 METAR CYKF 220812Z AUTO 31010G17KT 9SM -SN FEW021 SCT030 OVC041 M00/M03 A2998
                 RMK SLP161 =
2017-11-22 08:06 METAR CYKF 220806Z AUTO 30011G16KT 9SM -RASN FEW019 SCT025 BKN032 OVC039 M00/M03
                 A2998 RMK SLP161 =
2017-11-22 08:00 METAR CYKF 220800Z AUTO 29007G16KT 9SM -RA FEW019 SCT025 BKN032 OVC039 00/M02
                 A2998 RMK SLP161 =
2017-11-22 07:53 METAR CYKF 220753Z AUTO 31011G17KT 9SM -RA SCT026 OVC034 00/M03 A2997 RMK SLP160
                 =
2017-11-22 07:37 METAR CYKF 220737Z AUTO 30010G15KT 9SM FEW027 OVC034 00/M03 A2997 RMK SLP158 =
2017-11-22 07:27 METAR CYKF 220727Z AUTO 30009G15KT 9SM -RA BKN032 OVC041 00/M02 A2996 RMK SLP156
                 =
2017-11-22 07:08 METAR CYKF 220708Z AUTO 30008KT 9SM FEW020 BKN025 OVC035 00/M02 A2995 RMK SLP152
                 =
2017-11-22 07:05 METAR CYKF 220705Z AUTO 30008KT 9SM BKN022 BKN029 OVC035 00/M02 A2995 RMK SLP151
                 =
2017-11-22 07:04 METAR CYKF 220704Z AUTO 30009KT 9SM SCT022 BKN026 OVC033 00/M02 A2995 RMK SLP151
                 =
2017-11-22 07:00 METAR CYKF 220700Z AUTO 30010KT 9SM BKN022 BKN029 OVC036 00/M02 A2995 RMK SLP151
                 =
2017-11-22 06:48 METAR CYKF 220648Z AUTO 31006KT 9SM BKN022 BKN029 OVC036 00/M02 A2994 RMK SLP149
                 =
2017-11-22 06:47 METAR CYKF 220647Z AUTO 31006KT 9SM SCT020 BKN026 OVC036 00/M02 A2994 RMK SLP149
                 =
2017-11-22 06:40 METAR CYKF 220640Z AUTO 31007KT 9SM BKN023 BKN030 OVC041 00/M02 A2994 RMK SLP148
                 =
2017-11-22 06:00 METAR CYKF 220600Z AUTO 31011KT 9SM SCT019 OVC026 01/M02 A2993 RMK SLP145 =
2017-11-22 05:56 METAR CYKF 220556Z AUTO 30008KT 9SM SCT019 OVC026 01/M02 A2993 RMK SLP145 =
2017-11-22 05:00 METAR CYKF 220500Z AUTO 30007KT 9SM BKN021 BKN032 OVC039 01/M00 A2991 RMK SLP136
                 =
2017-11-22 04:58 METAR CYKF 220458Z AUTO 30007KT 9SM BKN021 BKN032 BKN039 OVC046 01/M00 A2991 RMK
                 SLP137 =
2017-11-22 04:55 METAR CYKF 220455Z AUTO 30007KT 9SM SCT021 BKN032 OVC043 01/M00 A2991 RMK SLP137
                 =
2017-11-22 04:46 METAR CYKF 220446Z AUTO 31007KT 9SM BKN021 OVC045 01/M00 A2989 RMK SLP132 =
2017-11-22 04:00 METAR CYKF 220400Z AUTO 30004KT 9SM BKN030 BKN055 OVC120 01/00 A2988 RMK SLP126
                 =
2017-11-22 03:44 METAR CYKF 220344Z AUTO 31004KT 9SM FEW039 BKN046 OVC060 01/01 A2988 RMK SLP127
                 =
2017-11-22 03:19 METAR CYKF 220319Z AUTO 32009KT 7SM -RA FEW005 SCT022 OVC034 01/00 A2987 RMK
                 SLP125 =
2017-11-22 03:16 METAR CYKF 220316Z AUTO 33010KT 6SM -RA BR SCT007 SCT018 BKN024 OVC032 01/01
                 A2987 RMK SLP125 =
2017-11-22 03:14 METAR CYKF 220314Z AUTO 32008KT 5SM -RA BR FEW007 SCT011 BKN024 OVC032 01/01
                 A2987 RMK SLP125 =
2017-11-22 03:08 METAR CYKF 220308Z AUTO 32008KT 4SM -RA -UP BR SCT005 SCT011 BKN019 OVC023 01/01
                 A2987 RMK SLP124 =
2017-11-22 03:00 METAR CYKF 220300Z AUTO 32006KT 4SM -UP BR FEW005 SCT011 OVC023 01/01 A2986 RMK
                 SLP121 =
2017-11-22 02:49 METAR CYKF 220249Z AUTO 33010G16KT 3SM -UP BR FEW007 SCT011 BKN017 OVC023 01/01
                 A2985 RMK SLP120 =
2017-11-22 02:44 METAR CYKF 220244Z AUTO 33011G18KT 4SM RA -UP BR SCT007 BKN011 BKN017 OVC023
                 01/01 A2985 RMK SLP120 =
2017-11-22 02:43 METAR CYKF 220243Z AUTO 32011G18KT 280V340 4SM RA -UP BR BKN009 BKN015 OVC023
                 01/01 A2985 RMK PRESRR SLP120 =
2017-11-22 02:38 METAR CYKF 220238Z AUTO 33013G18KT 260V340 5SM -RA BR BKN009 BKN013 BKN018
                 OVC036 02/01 A2985 RMK SLP119 =
2017-11-22 02:00 METAR CYKF 220200Z AUTO 26008KT 9SM -RA BKN011 OVC036 02/02 A2984 RMK SLP113 =
2017-11-22 01:51 METAR CYKF 220151Z AUTO 26009KT 9SM -RA BKN011 OVC038 02/02 A2984 RMK SLP113 =
2017-11-22 01:47 METAR CYKF 220147Z AUTO 25009KT 9SM -RA BKN009 OVC038 02/02 A2983 RMK SLP113 =
2017-11-22 01:39 METAR CYKF 220139Z AUTO 26009G15KT 9SM -RA BKN011 OVC038 02/02 A2984 RMK SLP113
                 =
2017-11-22 01:00 METAR CYKF 220100Z AUTO 27012KT 9SM -RA FEW010 SCT013 BKN034 OVC045 03/02 A2983
                 RMK SLP110 =
2017-11-22 00:50 METAR CYKF 220050Z AUTO 28009KT 8SM -RA FEW008 SCT015 BKN036 OVC045 03/02 A2983
                 RMK SLP110 =
2017-11-22 00:40 METAR CYKF 220040Z AUTO 29010G15KT 8SM -RA SCT008 BKN015 BKN020 OVC034 03/02
                 A2982 RMK SLP109 =
2017-11-22 00:26 METAR CYKF 220026Z AUTO 30009G15KT 8SM -RA BKN008 BKN028 OVC034 03/02 A2983 RMK
                 SLP110 =
2017-11-22 00:25 METAR CYKF 220025Z AUTO 30009G15KT 8SM -RA SCT008 BKN012 BKN028 OVC034 03/02
                 A2983 RMK SLP110 =
2017-11-22 00:23 METAR CYKF 220023Z AUTO 29009G16KT 8SM -RA SCT008 BKN025 OVC032 03/03 A2983 RMK
                 SLP111 =
2017-11-22 00:22 METAR CYKF 220022Z AUTO 29008G17KT 8SM -RA SCT008 BKN017 BKN025 OVC034 03/03
                 A2983 RMK SLP110 =
2017-11-22 00:20 METAR CYKF 220020Z AUTO 28008G17KT 8SM -RA SCT008 SCT017 BKN025 OVC034 03/03
                 A2983 RMK SLP110 =
2017-11-22 00:19 METAR CYKF 220019Z AUTO 28009G17KT 8SM -RA SCT008 SCT014 BKN021 OVC034 03/03
                 A2983 RMK SLP110 =
2017-11-22 00:07 METAR CYKF 220007Z AUTO 28013G21KT 7SM -RA FEW014 SCT020 OVC029 04/02 A2982 RMK
                 SLP108 =
2017-11-22 00:00 METAR CYKF 220000Z AUTO 28017KT 6SM -RA BR SCT014 BKN019 OVC027 04/02 A2982 RMK
                 SLP107 =
2017-11-21 23:59 METAR CYKF 212359Z AUTO 29016G21KT 6SM -RA BR SCT014 BKN019 OVC027 04/03 A2982
                 RMK PRESRR SLP107 =
2017-11-21 23:53 METAR CYKF 212353Z AUTO 28015G20KT 5SM -RA BR SCT014 OVC019 05/03 A2981 RMK
                 SLP104 =
2017-11-21 23:33 METAR CYKF 212333Z AUTO 25013G28KT 9SM -RA BKN022 OVC030 06/03 A2979 RMK SLP098
                 =
2017-11-21 23:07 METAR CYKF 212307Z AUTO 24012G20KT 9SM -RA BKN033 OVC040 07/02 A2978 RMK SLP093
                 =
2017-11-21 23:00 METAR CYKF 212300Z AUTO 24011KT 9SM BKN033 OVC040 07/02 A2978 RMK SLP093 =
2017-11-21 22:00 METAR CYKF 212200Z AUTO 21009KT 9SM SCT042 BKN049 OVC130 07/01 A2975 RMK SLP082
                 =
2017-11-21 21:00 METAR CYKF 212100Z AUTO 23017G23KT 9SM BKN047 BKN120 08/01 A2973 RMK SLP075 =
2017-11-21 20:00 METAR CYKF 212000Z AUTO 23016G22KT 9SM CLR 09/01 A2972 RMK SLP071 =
2017-11-21 19:00 METAR CYKF 211900Z AUTO 23021G26KT 9SM CLR 09/01 A2969 RMK SLP060 =
2017-11-21 18:00 METAR CYKF 211800Z AUTO 21020G29KT 9SM CLR 10/01 A2966 RMK SLP051 =
2017-11-21 17:00 METAR CYKF 211700Z AUTO 24020G32KT 9SM CLR 09/01 A2967 RMK SLP053 =
2017-11-21 16:23 METAR CYKF 211623Z AUTO 22026G33KT 9SM FEW220 SCT240 09/00 A2967 RMK SLP055 =
2017-11-21 16:00 METAR CYKF 211600Z AUTO 20016G26KT 9SM BKN240 08/00 A2966 RMK SLP050 =
2017-11-21 15:00 METAR CYKF 211500Z AUTO 22020G30KT 9SM FEW140 BKN190 07/M00 A2967 RMK SLP057 =
2017-11-21 14:00 METAR CYKF 211400Z AUTO 22013G23KT 9SM CLR 06/M01 A2967 RMK SLP055 =
2017-11-21 13:00 METAR CYKF 211300Z AUTO 21015G22KT 9SM BKN190 BKN210 05/M01 A2966 RMK SLP053 =

Support USWX by starting your Amazon purchase here.